createdAt,value
2023-04-07T00:00:32.507Z,269.03
2023-04-07T00:01:32.624Z,212.56
2023-04-07T00:02:32.561Z,202.69
2023-04-07T00:03:32.605Z,219.75
2023-04-07T00:04:32.726Z,204.97
2023-04-07T00:05:32.594Z,128.23
2023-04-07T00:06:32.529Z,0.00
2023-04-07T00:07:33.872Z,0.00
2023-04-07T00:08:32.563Z,0.00
2023-04-07T00:09:32.523Z,0.00
2023-04-07T00:10:32.544Z,0.00
2023-04-07T00:11:32.494Z,0.00
2023-04-07T00:12:32.484Z,0.00
2023-04-07T00:13:33.065Z,0.00
2023-04-07T00:14:32.588Z,0.00
2023-04-07T00:15:32.504Z,0.00
2023-04-07T00:16:32.507Z,0.00
2023-04-07T00:17:32.601Z,0.00
2023-04-07T00:18:32.495Z,0.00
2023-04-07T00:19:32.457Z,21.42
2023-04-07T00:20:32.426Z,1.87
2023-04-07T00:21:32.460Z,0.33
2023-04-07T00:22:32.417Z,7.89
2023-04-07T00:23:33.088Z,0.00
2023-04-07T00:24:34.579Z,0.00
2023-04-07T00:25:32.573Z,0.00
2023-04-07T00:26:32.432Z,23.41
2023-04-07T00:27:32.491Z,30.62
2023-04-07T00:28:32.469Z,36.86
2023-04-07T00:29:32.492Z,47.64
2023-04-07T00:30:32.561Z,52.81
2023-04-07T00:31:32.585Z,49.26
2023-04-07T00:32:33.651Z,71.64
2023-04-07T00:33:32.564Z,81.52
2023-04-07T00:34:32.609Z,74.54
2023-04-07T00:35:32.576Z,103.29
2023-04-07T00:36:32.563Z,123.19
2023-04-07T00:37:32.529Z,124.04
2023-04-07T00:38:32.712Z,119.43
2023-04-07T00:39:33.040Z,106.82
2023-04-07T00:40:32.536Z,92.75
2023-04-07T00:41:32.512Z,84.28
2023-04-07T00:42:32.504Z,80.62
2023-04-07T00:43:32.497Z,82.65
2023-04-07T00:44:32.506Z,66.43
2023-04-07T00:45:32.481Z,57.88
2023-04-07T00:46:32.452Z,22.83
2023-04-07T00:47:32.482Z,13.87
2023-04-07T00:48:32.441Z,11.34
2023-04-07T00:49:32.450Z,3.81
2023-04-07T00:50:32.424Z,3.93
2023-04-07T00:51:32.451Z,19.87
2023-04-07T00:52:32.451Z,26.18
2023-04-07T00:53:32.424Z,22.26
2023-04-07T00:54:32.454Z,43.58
2023-04-07T00:55:32.421Z,47.46
2023-04-07T00:56:32.429Z,44.64
2023-04-07T00:57:32.391Z,51.60
2023-04-07T00:58:32.368Z,42.64
2023-04-07T00:59:32.388Z,37.32
2023-04-07T01:00:32.394Z,26.40
2023-04-07T01:01:32.587Z,29.91
2023-04-07T01:02:32.561Z,32.25
2023-04-07T01:03:32.697Z,39.63
2023-04-07T01:04:32.552Z,50.75
2023-04-07T01:05:32.332Z,63.30
2023-04-07T01:06:32.367Z,77.46
2023-04-07T01:07:32.328Z,82.80
2023-04-07T01:08:32.352Z,92.60
2023-04-07T01:09:32.306Z,98.78
2023-04-07T01:10:33.092Z,106.28
2023-04-07T01:11:32.304Z,123.33
2023-04-07T01:12:32.270Z,134.62
2023-04-07T01:13:32.294Z,135.33
2023-04-07T01:14:32.306Z,134.62
2023-04-07T01:15:32.274Z,119.30
2023-04-07T01:16:32.348Z,106.83
2023-04-07T01:17:32.272Z,107.18
2023-04-07T01:18:32.220Z,112.07
2023-04-07T01:19:32.246Z,120.12
2023-04-07T01:20:32.253Z,109.66
2023-04-07T01:21:32.219Z,122.97
2023-04-07T01:22:32.250Z,115.90
2023-04-07T01:23:32.225Z,116.60
2023-04-07T01:24:32.229Z,164.46
2023-04-07T01:25:32.218Z,160.62
2023-04-07T01:26:32.233Z,169.13
2023-04-07T01:27:32.204Z,204.43
2023-04-07T01:28:35.063Z,216.34
2023-04-07T01:29:32.164Z,222.86
2023-04-07T01:30:32.200Z,231.17
2023-04-07T01:31:32.230Z,237.12
2023-04-07T01:32:32.185Z,234.21
2023-04-07T01:33:32.152Z,241.88
2023-04-07T01:34:32.163Z,241.39
2023-04-07T01:35:32.186Z,237.65
2023-04-07T01:36:32.234Z,227.59
2023-04-07T01:37:34.055Z,238.30
2023-04-07T01:38:33.102Z,226.40
2023-04-07T01:39:33.072Z,214.36
2023-04-07T01:40:33.552Z,218.02
2023-04-07T01:41:32.090Z,217.01
2023-04-07T01:42:32.052Z,215.07
2023-04-07T01:43:32.084Z,178.36
2023-04-07T01:44:32.113Z,161.69
2023-04-07T01:45:32.117Z,160.07
2023-04-07T01:46:32.108Z,165.02
2023-04-07T01:47:32.122Z,176.93
2023-04-07T01:48:32.072Z,188.49
2023-04-07T01:49:32.034Z,199.57
2023-04-07T01:50:32.165Z,205.44
2023-04-07T01:51:32.174Z,206.09
2023-04-07T01:52:37.156Z,191.63
2023-04-07T01:53:32.140Z,182.86
2023-04-07T01:54:32.076Z,181.31
2023-04-07T01:55:32.141Z,184.12
2023-04-07T01:56:32.071Z,179.28
2023-04-07T01:57:32.116Z,191.79
2023-04-07T01:58:32.158Z,217.60
2023-04-07T01:59:32.164Z,185.38
2023-04-07T02:00:32.082Z,154.65
2023-04-07T02:01:32.209Z,137.32
2023-04-07T02:02:32.233Z,137.50
2023-04-07T02:03:32.113Z,161.04
2023-04-07T02:04:32.132Z,191.33
2023-04-07T02:05:32.122Z,174.11
2023-04-07T02:06:32.201Z,158.10
2023-04-07T02:07:32.065Z,165.31
2023-04-07T02:08:32.348Z,205.36
2023-04-07T02:09:32.186Z,201.63
2023-04-07T02:10:32.753Z,192.28
2023-04-07T02:11:32.134Z,184.27
2023-04-07T02:12:32.200Z,181.81
2023-04-07T02:13:32.163Z,186.43
2023-04-07T02:14:32.223Z,204.16
2023-04-07T02:15:32.211Z,206.37
2023-04-07T02:16:32.398Z,194.99
2023-04-07T02:17:32.264Z,218.57
2023-04-07T02:18:32.420Z,237.56
2023-04-07T02:19:32.318Z,242.43
2023-04-07T02:20:33.111Z,244.33
2023-04-07T02:21:32.310Z,241.83
2023-04-07T02:22:32.340Z,241.10
2023-04-07T02:23:32.433Z,249.03
2023-04-07T02:24:32.516Z,250.54
2023-04-07T02:25:32.542Z,252.80
2023-04-07T02:26:34.238Z,238.49
2023-04-07T02:27:33.198Z,225.85
2023-04-07T02:28:32.498Z,216.09
2023-04-07T02:29:32.494Z,216.29
2023-04-07T02:30:32.470Z,212.94
2023-04-07T02:31:32.540Z,209.40
2023-04-07T02:32:32.493Z,203.27
2023-04-07T02:33:32.432Z,192.23
2023-04-07T02:34:33.157Z,188.65
2023-04-07T02:35:32.424Z,188.14
2023-04-07T02:36:32.504Z,181.74
2023-04-07T02:37:32.446Z,174.67
2023-04-07T02:38:33.067Z,168.62
2023-04-07T02:39:32.422Z,165.89
2023-04-07T02:40:32.387Z,158.80
2023-04-07T02:41:32.379Z,152.01
2023-04-07T02:42:32.375Z,152.52
2023-04-07T02:43:32.361Z,164.88
2023-04-07T02:44:32.399Z,182.90
2023-04-07T02:45:32.372Z,175.74
2023-04-07T02:46:32.481Z,160.35
2023-04-07T02:47:32.405Z,162.39
2023-04-07T02:48:32.374Z,167.17
2023-04-07T02:49:32.337Z,162.98
2023-04-07T02:50:33.226Z,148.40
2023-04-07T02:51:32.376Z,141.93
2023-04-07T02:52:32.376Z,135.97
2023-04-07T02:53:32.411Z,138.62
2023-04-07T02:54:32.266Z,128.20
2023-04-07T02:55:32.283Z,124.04
2023-04-07T02:56:32.317Z,133.58
2023-04-07T02:57:33.134Z,146.32
2023-04-07T02:58:32.247Z,143.75
2023-04-07T02:59:32.260Z,148.77
2023-04-07T03:00:32.292Z,146.84
2023-04-07T03:01:32.381Z,163.14
2023-04-07T03:02:32.475Z,171.00
2023-04-07T03:03:32.325Z,184.66
2023-04-07T03:04:32.259Z,167.84
2023-04-07T03:05:32.223Z,178.96
2023-04-07T03:06:32.252Z,145.34
2023-04-07T03:07:32.250Z,124.50
2023-04-07T03:08:33.114Z,105.47
2023-04-07T03:09:32.191Z,104.54
2023-04-07T03:10:32.158Z,106.93
2023-04-07T03:11:32.172Z,107.10
2023-04-07T03:12:32.143Z,103.28
2023-04-07T03:13:32.181Z,102.90
2023-04-07T03:14:32.140Z,114.50
2023-04-07T03:15:32.144Z,141.92
2023-04-07T03:16:32.221Z,144.63
2023-04-07T03:17:32.223Z,142.16
2023-04-07T03:18:32.112Z,154.55
2023-04-07T03:19:32.113Z,152.41
2023-04-07T03:20:32.604Z,150.64
2023-04-07T03:21:32.215Z,142.81
2023-04-07T03:22:32.095Z,136.51
2023-04-07T03:23:32.093Z,137.31
2023-04-07T03:24:32.121Z,147.67
2023-04-07T03:25:32.126Z,161.25
2023-04-07T03:26:32.149Z,155.32
2023-04-07T03:27:32.166Z,146.80
2023-04-07T03:28:32.187Z,135.03
2023-04-07T03:29:32.207Z,138.84
2023-04-07T03:30:32.388Z,151.27
2023-04-07T03:31:32.244Z,160.99
2023-04-07T03:32:32.439Z,162.89
2023-04-07T03:33:32.285Z,153.96
2023-04-07T03:34:32.305Z,146.88
2023-04-07T03:35:32.716Z,167.25
2023-04-07T03:36:32.383Z,168.88
2023-04-07T03:37:33.131Z,175.50
2023-04-07T03:38:32.485Z,179.27
2023-04-07T03:39:32.550Z,185.76
2023-04-07T03:40:32.567Z,191.74
2023-04-07T03:41:32.593Z,180.14
2023-04-07T03:42:32.660Z,170.66
2023-04-07T03:43:32.622Z,174.32
2023-04-07T03:44:32.698Z,161.16
2023-04-07T03:45:32.662Z,150.11
2023-04-07T03:46:33.618Z,175.41
2023-04-07T03:47:32.709Z,193.76
2023-04-07T03:48:32.670Z,194.57
2023-04-07T03:49:32.757Z,190.97
2023-04-07T03:50:32.708Z,195.30
2023-04-07T03:51:32.783Z,200.93
2023-04-07T03:52:35.605Z,202.35
2023-04-07T03:53:32.764Z,198.39
2023-04-07T03:54:32.783Z,211.05
2023-04-07T03:55:32.787Z,213.17
2023-04-07T03:56:33.644Z,209.00
2023-04-07T03:57:32.727Z,214.21
2023-04-07T03:58:32.692Z,235.46
2023-04-07T03:59:32.721Z,237.40
2023-04-07T04:00:32.753Z,233.99
2023-04-07T04:01:32.733Z,233.79
2023-04-07T04:02:32.772Z,223.52
2023-04-07T04:03:32.822Z,241.28
2023-04-07T04:04:32.712Z,251.90
2023-04-07T04:05:32.669Z,255.95
2023-04-07T04:06:32.668Z,255.46
2023-04-07T04:07:32.711Z,255.95
2023-04-07T04:08:32.679Z,261.74
2023-04-07T04:09:32.660Z,276.85
2023-04-07T04:10:32.616Z,271.32
2023-04-07T04:11:32.649Z,261.78
2023-04-07T04:12:32.801Z,255.42
2023-04-07T04:13:32.616Z,248.51
2023-04-07T04:14:32.674Z,249.40
2023-04-07T04:15:32.633Z,247.76
2023-04-07T04:16:32.672Z,249.95
2023-04-07T04:17:32.636Z,248.99
2023-04-07T04:18:32.617Z,242.35
2023-04-07T04:19:32.614Z,233.12
2023-04-07T04:20:32.602Z,231.44
2023-04-07T04:21:32.621Z,234.64
2023-04-07T04:22:32.543Z,224.83
2023-04-07T04:23:32.616Z,216.10
2023-04-07T04:24:32.587Z,216.43
2023-04-07T04:25:32.538Z,217.71
2023-04-07T04:26:32.515Z,217.06
2023-04-07T04:27:32.557Z,218.74
2023-04-07T04:28:32.544Z,221.16
2023-04-07T04:29:33.024Z,226.34
2023-04-07T04:30:32.519Z,229.42
2023-04-07T04:31:32.582Z,231.19
2023-04-07T04:32:32.570Z,229.59
2023-04-07T04:33:32.539Z,216.49
2023-04-07T04:34:32.490Z,208.77
2023-04-07T04:35:32.477Z,198.73
2023-04-07T04:36:32.543Z,195.98
2023-04-07T04:37:32.459Z,198.29
2023-04-07T04:38:32.480Z,199.29
2023-04-07T04:39:32.491Z,200.34
2023-04-07T04:40:32.460Z,210.36
2023-04-07T04:41:32.520Z,211.40
2023-04-07T04:42:32.499Z,210.84
2023-04-07T04:43:32.469Z,211.73
2023-04-07T04:44:32.442Z,211.61
2023-04-07T04:45:32.392Z,212.44
2023-04-07T04:46:32.468Z,216.52
2023-04-07T04:47:32.437Z,222.68
2023-04-07T04:48:32.394Z,235.53
2023-04-07T04:49:32.361Z,250.25
2023-04-07T04:50:32.429Z,255.96
2023-04-07T04:51:32.412Z,258.36
2023-04-07T04:52:32.630Z,261.30
2023-04-07T04:53:32.551Z,255.01
2023-04-07T04:54:32.423Z,246.38
2023-04-07T04:55:32.487Z,236.15
2023-04-07T04:56:32.438Z,236.71
2023-04-07T04:57:32.518Z,241.59
2023-04-07T04:58:33.103Z,248.03
2023-04-07T04:59:32.562Z,250.55
2023-04-07T05:00:32.675Z,251.27
2023-04-07T05:01:33.649Z,250.10
2023-04-07T05:02:32.912Z,250.53
2023-04-07T05:03:33.097Z,252.37
2023-04-07T05:04:33.123Z,263.27
2023-04-07T05:05:33.665Z,270.11
2023-04-07T05:06:32.900Z,268.10
2023-04-07T05:07:32.990Z,262.33
2023-04-07T05:08:32.956Z,256.68
2023-04-07T05:09:33.029Z,249.71
2023-04-07T05:10:32.973Z,244.16
2023-04-07T05:11:32.997Z,239.69
2023-04-07T05:12:32.954Z,238.08
2023-04-07T05:13:33.021Z,236.06
2023-04-07T05:14:32.998Z,227.41
2023-04-07T05:15:33.136Z,219.40
2023-04-07T05:16:32.977Z,214.21
2023-04-07T05:17:33.018Z,206.75
2023-04-07T05:18:33.042Z,197.51
2023-04-07T05:19:33.086Z,195.14
2023-04-07T05:20:33.178Z,191.78
2023-04-07T05:21:33.122Z,189.94
2023-04-07T05:22:33.139Z,180.22
2023-04-07T05:23:33.209Z,178.71
2023-04-07T05:24:34.152Z,180.74
2023-04-07T05:25:33.268Z,189.09
2023-04-07T05:26:33.255Z,203.72
2023-04-07T05:27:33.238Z,209.45
2023-04-07T05:28:33.302Z,210.12
2023-04-07T05:29:33.372Z,211.34
2023-04-07T05:30:33.363Z,198.69
2023-04-07T05:31:33.492Z,194.36
2023-04-07T05:32:33.442Z,192.59
2023-04-07T05:33:33.447Z,193.60
2023-04-07T05:34:33.458Z,183.47
2023-04-07T05:35:33.472Z,173.82
2023-04-07T05:36:33.472Z,171.36
2023-04-07T05:37:33.531Z,172.41
2023-04-07T05:38:33.625Z,169.52
2023-04-07T05:39:33.566Z,175.44
2023-04-07T05:40:35.047Z,171.61
2023-04-07T05:41:33.586Z,173.75
2023-04-07T05:42:33.560Z,182.06
2023-04-07T05:43:33.563Z,170.33
2023-04-07T05:44:33.595Z,178.19
2023-04-07T05:45:33.681Z,221.87
2023-04-07T05:46:33.523Z,243.26
2023-04-07T05:47:33.702Z,240.89
2023-04-07T05:48:33.502Z,234.77
2023-04-07T05:49:33.566Z,226.84
2023-04-07T05:50:33.525Z,223.84
2023-04-07T05:51:33.508Z,211.60
2023-04-07T05:52:33.602Z,213.01
2023-04-07T05:53:33.499Z,226.09
2023-04-07T05:54:33.484Z,230.10
2023-04-07T05:55:33.514Z,227.41
2023-04-07T05:56:33.455Z,212.42
2023-04-07T05:57:33.478Z,206.03
2023-04-07T05:58:33.492Z,197.64
2023-04-07T05:59:33.546Z,184.36
2023-04-07T06:00:33.440Z,190.49
2023-04-07T06:01:33.416Z,196.72
2023-04-07T06:02:33.515Z,206.42
2023-04-07T06:03:33.741Z,211.18
2023-04-07T06:04:33.411Z,214.90
2023-04-07T06:05:33.418Z,221.49
2023-04-07T06:06:33.393Z,218.68
2023-04-07T06:07:34.125Z,215.23
2023-04-07T06:08:33.375Z,209.91
2023-04-07T06:09:33.342Z,209.07
2023-04-07T06:10:33.387Z,204.04
2023-04-07T06:11:33.378Z,179.93
2023-04-07T06:12:33.405Z,166.34
2023-04-07T06:13:33.636Z,175.14
2023-04-07T06:14:33.341Z,181.77
2023-04-07T06:15:33.345Z,177.94
2023-04-07T06:16:33.360Z,175.84
2023-04-07T06:17:34.171Z,180.09
2023-04-07T06:18:33.309Z,164.80
2023-04-07T06:19:34.195Z,158.91
2023-04-07T06:20:33.308Z,148.12
2023-04-07T06:21:33.314Z,138.42
2023-04-07T06:22:33.294Z,133.45
2023-04-07T06:23:33.354Z,121.50
2023-04-07T06:24:33.354Z,136.67
2023-04-07T06:25:33.294Z,144.68
2023-04-07T06:26:33.249Z,154.00
2023-04-07T06:27:33.241Z,161.93
2023-04-07T06:28:33.233Z,169.51
2023-04-07T06:29:33.259Z,162.79
2023-04-07T06:30:33.347Z,159.96
2023-04-07T06:31:33.242Z,177.23
2023-04-07T06:32:33.270Z,195.19
2023-04-07T06:33:33.175Z,215.31
2023-04-07T06:34:33.192Z,224.91
2023-04-07T06:35:33.161Z,227.44
2023-04-07T06:36:33.243Z,227.46
2023-04-07T06:37:33.145Z,234.54
2023-04-07T06:38:34.193Z,243.97
2023-04-07T06:39:33.179Z,253.95
2023-04-07T06:40:33.147Z,262.44
2023-04-07T06:41:33.172Z,251.68
2023-04-07T06:42:33.140Z,257.80
2023-04-07T06:43:33.165Z,248.20
2023-04-07T06:44:33.121Z,241.88
2023-04-07T06:45:33.136Z,246.98
2023-04-07T06:46:33.131Z,291.50
2023-04-07T06:47:33.118Z,345.48
2023-04-07T06:48:33.219Z,343.14
2023-04-07T06:49:34.267Z,264.16
2023-04-07T06:50:33.287Z,225.03
2023-04-07T06:51:34.130Z,219.57
2023-04-07T06:52:33.429Z,213.01
2023-04-07T06:53:33.394Z,199.28
2023-04-07T06:54:33.415Z,204.80
2023-04-07T06:55:33.479Z,205.21
2023-04-07T06:56:34.163Z,214.52
2023-04-07T06:57:33.516Z,197.89
2023-04-07T06:58:36.203Z,167.55
2023-04-07T06:59:33.554Z,224.30
2023-04-07T07:00:34.142Z,186.05
2023-04-07T07:01:33.647Z,161.65
2023-04-07T07:02:33.667Z,163.50
2023-04-07T07:03:33.596Z,163.08
2023-04-07T07:04:33.699Z,159.44
2023-04-07T07:05:33.576Z,156.73
2023-04-07T07:06:33.530Z,134.63
2023-04-07T07:07:33.497Z,115.82
2023-04-07T07:08:33.567Z,110.99
2023-04-07T07:09:33.534Z,102.13
2023-04-07T07:10:33.558Z,80.67
2023-04-07T07:11:33.472Z,66.83
2023-04-07T07:12:34.159Z,73.80
2023-04-07T07:13:33.507Z,74.59
2023-04-07T07:14:34.197Z,81.38
2023-04-07T07:15:33.620Z,85.94
2023-04-07T07:16:34.176Z,77.24
2023-04-07T07:17:33.488Z,76.32
2023-04-07T07:18:33.452Z,88.43
2023-04-07T07:19:33.427Z,91.24
2023-04-07T07:20:33.488Z,97.61
2023-04-07T07:21:33.419Z,123.49
2023-04-07T07:22:33.427Z,226.75
2023-04-07T07:23:33.498Z,191.26
2023-04-07T07:24:33.469Z,153.39
2023-04-07T07:25:33.685Z,137.07
2023-04-07T07:26:34.211Z,108.66
2023-04-07T07:27:33.454Z,93.19
2023-04-07T07:28:34.151Z,56.38
2023-04-07T07:29:33.401Z,31.63
2023-04-07T07:30:33.367Z,24.44
2023-04-07T07:31:33.385Z,27.10
2023-04-07T07:32:33.404Z,28.45
2023-04-07T07:33:33.370Z,30.40
2023-04-07T07:34:33.434Z,30.63
2023-04-07T07:35:33.306Z,20.91
2023-04-07T07:36:33.788Z,21.10
2023-04-07T07:37:33.436Z,14.30
2023-04-07T07:38:35.156Z,17.74
2023-04-07T07:39:33.375Z,21.19
2023-04-07T07:40:38.156Z,27.42
2023-04-07T07:41:33.279Z,27.65
2023-04-07T07:42:33.284Z,28.95
2023-04-07T07:43:33.346Z,33.25
2023-04-07T07:44:33.269Z,38.17
2023-04-07T07:45:33.765Z,92.18
2023-04-07T07:46:33.258Z,155.81
2023-04-07T07:47:33.309Z,78.83
2023-04-07T07:48:33.356Z,48.83
2023-04-07T07:49:33.222Z,35.62
2023-04-07T07:50:33.292Z,37.84
2023-04-07T07:51:33.251Z,50.51
2023-04-07T07:52:33.237Z,81.93
2023-04-07T07:53:33.341Z,140.63
2023-04-07T07:54:33.269Z,163.02
2023-04-07T07:55:34.192Z,152.01
2023-04-07T07:56:33.349Z,182.71
2023-04-07T07:57:34.185Z,134.46
2023-04-07T07:58:33.385Z,77.44
2023-04-07T07:59:33.558Z,72.18
2023-04-07T08:00:33.498Z,82.58
2023-04-07T08:01:33.590Z,131.42
2023-04-07T08:02:33.653Z,153.32
2023-04-07T08:03:33.763Z,131.93
2023-04-07T08:04:33.710Z,124.85
2023-04-07T08:05:34.768Z,90.44
2023-04-07T08:06:33.723Z,56.06
2023-04-07T08:07:33.770Z,39.33
2023-04-07T08:08:33.740Z,29.26
2023-04-07T08:09:33.811Z,18.09
2023-04-07T08:10:33.798Z,23.01
2023-04-07T08:11:33.786Z,18.42
2023-04-07T08:12:33.798Z,21.67
2023-04-07T08:13:33.863Z,28.95
2023-04-07T08:14:33.959Z,39.49
2023-04-07T08:15:33.953Z,65.59
2023-04-07T08:16:34.067Z,76.36
2023-04-07T08:17:34.067Z,65.91
2023-04-07T08:18:34.054Z,75.05
2023-04-07T08:19:34.746Z,62.64
2023-04-07T08:20:34.196Z,55.17
2023-04-07T08:21:34.169Z,57.58
2023-04-07T08:22:34.207Z,62.16
2023-04-07T08:23:34.218Z,46.70
2023-04-07T08:24:34.413Z,41.80
2023-04-07T08:25:34.306Z,46.26
2023-04-07T08:26:34.307Z,55.42
2023-04-07T08:27:34.345Z,63.44
2023-04-07T08:28:34.400Z,57.29
2023-04-07T08:29:35.176Z,71.75
2023-04-07T08:30:34.523Z,37.24
2023-04-07T08:31:34.565Z,21.42
2023-04-07T08:32:34.617Z,22.10
2023-04-07T08:33:34.801Z,27.20
2023-04-07T08:34:34.765Z,40.40
2023-04-07T08:35:34.713Z,49.46
2023-04-07T08:36:35.740Z,52.95
2023-04-07T08:37:34.772Z,73.28
2023-04-07T08:38:34.806Z,68.75
2023-04-07T08:39:34.862Z,57.98
2023-04-07T08:40:34.895Z,45.42
2023-04-07T08:41:34.904Z,54.49
2023-04-07T08:42:34.979Z,52.70
2023-04-07T08:43:34.950Z,65.33
2023-04-07T08:44:35.006Z,70.10
2023-04-07T08:45:34.999Z,63.58
2023-04-07T08:46:34.996Z,50.39
2023-04-07T08:47:35.080Z,50.90
2023-04-07T08:48:35.061Z,31.12
2023-04-07T08:49:35.092Z,59.55
2023-04-07T08:50:35.245Z,64.66
2023-04-07T08:51:35.149Z,37.70
2023-04-07T08:52:35.188Z,35.07
2023-04-07T08:53:35.155Z,44.92
2023-04-07T08:54:35.192Z,40.53
2023-04-07T08:55:35.187Z,30.63
2023-04-07T08:56:38.179Z,25.72
2023-04-07T08:57:35.204Z,29.09
2023-04-07T08:58:35.198Z,55.68
2023-04-07T08:59:35.180Z,39.24
2023-04-07T09:00:35.839Z,16.76
2023-04-07T09:01:35.615Z,0.00
2023-04-07T09:02:35.565Z,6.44
2023-04-07T09:03:35.270Z,5.88
2023-04-07T09:04:35.157Z,19.42
2023-04-07T09:05:35.121Z,24.14
2023-04-07T09:06:35.129Z,54.54
2023-04-07T09:07:35.083Z,51.17
2023-04-07T09:08:35.135Z,51.26
2023-04-07T09:09:35.115Z,45.93
2023-04-07T09:10:35.095Z,28.52
2023-04-07T09:11:35.212Z,12.84
2023-04-07T09:12:35.103Z,23.00
2023-04-07T09:13:35.063Z,33.27
2023-04-07T09:14:35.011Z,44.34
2023-04-07T09:15:36.704Z,56.61
2023-04-07T09:16:35.055Z,31.76
2023-04-07T09:17:35.082Z,32.03
2023-04-07T09:18:35.004Z,39.86
2023-04-07T09:19:35.054Z,31.25
2023-04-07T09:20:35.019Z,44.90
2023-04-07T09:21:35.755Z,31.39
2023-04-07T09:22:35.031Z,50.34
2023-04-07T09:23:35.006Z,52.82
2023-04-07T09:24:34.965Z,30.72
2023-04-07T09:25:35.086Z,37.24
2023-04-07T09:26:35.706Z,59.79
2023-04-07T09:27:34.955Z,30.47
2023-04-07T09:28:35.052Z,22.73
2023-04-07T09:29:34.941Z,21.47
2023-04-07T09:30:34.967Z,30.62
2023-04-07T09:31:34.979Z,26.85
2023-04-07T09:32:34.956Z,20.67
2023-04-07T09:33:34.980Z,29.03
2023-04-07T09:34:34.945Z,41.65
2023-04-07T09:35:41.693Z,44.96
2023-04-07T09:36:34.943Z,16.86
2023-04-07T09:37:34.906Z,4.04
2023-04-07T09:38:36.719Z,10.90
2023-04-07T09:39:35.774Z,46.28
2023-04-07T09:40:34.920Z,45.43
2023-04-07T09:41:35.014Z,25.00
2023-04-07T09:42:34.913Z,15.83
2023-04-07T09:43:35.674Z,33.43
2023-04-07T09:44:34.876Z,34.64
2023-04-07T09:45:36.170Z,52.94
2023-04-07T09:46:34.859Z,56.49
2023-04-07T09:47:35.738Z,67.88
2023-04-07T09:48:34.786Z,54.89
2023-04-07T09:49:36.671Z,50.48
2023-04-07T09:50:34.835Z,45.14
2023-04-07T09:51:34.810Z,43.24
2023-04-07T09:52:34.881Z,46.01
2023-04-07T09:53:34.891Z,33.89
2023-04-07T09:54:35.262Z,27.16
2023-04-07T09:55:34.970Z,23.03
2023-04-07T09:56:35.715Z,42.80
2023-04-07T09:57:35.071Z,48.08
2023-04-07T09:58:36.778Z,37.17
2023-04-07T09:59:35.155Z,37.97
2023-04-07T10:00:35.115Z,38.10
2023-04-07T10:01:35.165Z,41.72
2023-04-07T10:02:36.807Z,31.11
2023-04-07T10:03:35.808Z,46.32
2023-04-07T10:04:35.242Z,34.35
2023-04-07T10:05:35.241Z,48.59
2023-04-07T10:06:35.283Z,32.64
2023-04-07T10:07:35.260Z,40.15
2023-04-07T10:08:35.347Z,47.61
2023-04-07T10:09:35.317Z,52.50
2023-04-07T10:10:35.389Z,35.26
2023-04-07T10:11:35.385Z,33.31
2023-04-07T10:12:35.358Z,29.60
2023-04-07T10:13:35.388Z,25.97
2023-04-07T10:14:35.451Z,22.88
2023-04-07T10:15:35.441Z,11.45
2023-04-07T10:16:35.582Z,27.01
2023-04-07T10:17:35.583Z,32.01
2023-04-07T10:18:35.631Z,24.23
2023-04-07T10:19:35.756Z,26.02
2023-04-07T10:20:35.669Z,26.67
2023-04-07T10:21:36.067Z,7.82
2023-04-07T10:22:35.732Z,6.76
2023-04-07T10:23:36.701Z,22.83
2023-04-07T10:24:35.874Z,30.94
2023-04-07T10:25:35.833Z,32.30
2023-04-07T10:26:35.884Z,22.93
2023-04-07T10:27:36.161Z,22.55
2023-04-07T10:28:35.898Z,32.52
2023-04-07T10:29:35.985Z,38.78
2023-04-07T10:30:36.902Z,49.07
2023-04-07T10:31:37.840Z,48.31
2023-04-07T10:32:36.097Z,35.75
2023-04-07T10:33:35.997Z,34.93
2023-04-07T10:34:36.011Z,56.42
2023-04-07T10:35:36.138Z,76.76
2023-04-07T10:36:36.777Z,71.86
2023-04-07T10:37:36.141Z,75.71
2023-04-07T10:38:36.190Z,73.61
2023-04-07T10:39:36.214Z,65.28
2023-04-07T10:40:36.413Z,63.79
2023-04-07T10:41:37.287Z,73.73
2023-04-07T10:42:36.415Z,69.36
2023-04-07T10:43:36.334Z,70.24
2023-04-07T10:44:36.445Z,64.23
2023-04-07T10:45:36.443Z,48.03
2023-04-07T10:46:36.579Z,54.50
2023-04-07T10:47:36.630Z,71.07
2023-04-07T10:48:36.491Z,62.05
2023-04-07T10:49:36.516Z,51.66
2023-04-07T10:50:37.318Z,46.75
2023-04-07T10:51:36.587Z,49.37
2023-04-07T10:52:36.697Z,50.69
2023-04-07T10:53:36.671Z,47.82
2023-04-07T10:54:36.691Z,41.83
2023-04-07T10:55:36.722Z,56.02
2023-04-07T10:56:36.699Z,52.25
2023-04-07T10:57:36.751Z,38.74
2023-04-07T10:58:36.764Z,42.06
2023-04-07T10:59:36.835Z,47.31
2023-04-07T11:00:37.802Z,74.81
2023-04-07T11:01:36.975Z,108.76
2023-04-07T11:02:37.164Z,91.33
2023-04-07T11:03:37.061Z,73.43
2023-04-07T11:04:37.101Z,74.55
2023-04-07T11:05:36.999Z,79.57
2023-04-07T11:06:37.048Z,74.49
2023-04-07T11:07:37.156Z,60.15
2023-04-07T11:08:37.095Z,50.50
2023-04-07T11:09:37.126Z,63.92
2023-04-07T11:10:37.296Z,61.73
2023-04-07T11:11:37.220Z,61.61
2023-04-07T11:12:37.260Z,61.99
2023-04-07T11:13:37.299Z,56.73
2023-04-07T11:14:37.358Z,53.92
2023-04-07T11:15:40.236Z,46.29
2023-04-07T11:16:38.208Z,36.87
2023-04-07T11:17:37.365Z,45.66
2023-04-07T11:18:37.307Z,43.59
2023-04-07T11:19:37.277Z,48.52
2023-04-07T11:20:37.388Z,39.86
2023-04-07T11:21:37.386Z,45.33
2023-04-07T11:22:37.282Z,31.05
2023-04-07T11:23:37.248Z,22.26
2023-04-07T11:24:37.279Z,29.52
2023-04-07T11:25:37.269Z,37.80
2023-04-07T11:26:38.322Z,53.39
2023-04-07T11:27:37.225Z,45.27
2023-04-07T11:28:37.307Z,44.83
2023-04-07T11:29:37.218Z,46.55
2023-04-07T11:30:37.225Z,46.40
2023-04-07T11:31:37.231Z,44.14
2023-04-07T11:32:37.230Z,52.03
2023-04-07T11:33:37.179Z,50.29
2023-04-07T11:34:37.203Z,49.53
2023-04-07T11:35:37.190Z,38.57
2023-04-07T11:36:37.191Z,29.30
2023-04-07T11:37:37.165Z,24.58
2023-04-07T11:38:37.175Z,26.85
2023-04-07T11:39:37.137Z,31.74
2023-04-07T11:40:37.276Z,31.29
2023-04-07T11:41:37.135Z,33.33
2023-04-07T11:42:37.150Z,45.04
2023-04-07T11:43:37.110Z,39.61
2023-04-07T11:44:37.116Z,28.17
2023-04-07T11:45:37.111Z,23.46
2023-04-07T11:46:37.173Z,27.13
2023-04-07T11:47:37.185Z,41.69
2023-04-07T11:48:37.720Z,60.86
2023-04-07T11:49:37.078Z,52.59
2023-04-07T11:50:37.147Z,40.04
2023-04-07T11:51:37.741Z,36.62
2023-04-07T11:52:37.181Z,42.88
2023-04-07T11:53:37.195Z,28.54
2023-04-07T11:54:37.221Z,22.23
2023-04-07T11:55:38.724Z,27.86
2023-04-07T11:56:38.286Z,37.81
2023-04-07T11:57:37.260Z,49.64
2023-04-07T11:58:37.260Z,39.98
2023-04-07T11:59:37.266Z,49.82
2023-04-07T12:00:37.397Z,45.08
2023-04-07T12:01:37.387Z,51.63
2023-04-07T12:02:37.665Z,69.77
2023-04-07T12:03:38.545Z,71.19
2023-04-07T12:04:37.590Z,80.09
2023-04-07T12:05:37.579Z,54.50
2023-04-07T12:06:37.557Z,46.96
2023-04-07T12:07:37.525Z,40.96
2023-04-07T12:08:37.526Z,43.97
2023-04-07T12:09:37.713Z,79.42
2023-04-07T12:10:37.565Z,88.66
2023-04-07T12:11:40.249Z,76.03
2023-04-07T12:12:37.599Z,78.10
2023-04-07T12:13:37.570Z,63.34
2023-04-07T12:14:37.539Z,59.58
2023-04-07T12:15:37.587Z,52.22
2023-04-07T12:16:37.834Z,54.81
2023-04-07T12:17:37.574Z,56.34
2023-04-07T12:18:37.565Z,46.24
2023-04-07T12:19:37.580Z,58.40
2023-04-07T12:20:37.832Z,57.57
2023-04-07T12:21:37.510Z,52.49
2023-04-07T12:22:37.480Z,49.94
2023-04-07T12:23:37.541Z,63.94
2023-04-07T12:24:37.599Z,51.11
2023-04-07T12:25:37.543Z,48.34
2023-04-07T12:26:37.555Z,53.74
2023-04-07T12:27:43.224Z,51.05
2023-04-07T12:28:38.500Z,45.37
2023-04-07T12:29:37.457Z,39.44
2023-04-07T12:30:37.549Z,31.03
2023-04-07T12:31:37.540Z,30.94
2023-04-07T12:32:37.490Z,32.65
2023-04-07T12:33:37.428Z,38.93
2023-04-07T12:34:37.525Z,39.06
2023-04-07T12:35:37.457Z,53.87
2023-04-07T12:36:37.834Z,71.46
2023-04-07T12:37:37.408Z,63.79
2023-04-07T12:38:37.439Z,45.39
2023-04-07T12:39:37.411Z,44.75
2023-04-07T12:40:37.408Z,39.12
2023-04-07T12:41:37.377Z,30.31